Time;durP1;ratioP1;P1;durP2;ratioP2;P2;SDS_P1;SDS_P2;PMS_P1;PMS_P2;Temp;Humidity;BMP_temperature;BMP_pressure;BME280_temperature;BME280_humidity;BME280_pressure;Samples;Min_cycle;Max_cycle;Signal;HPM_P1;HPM_P2
2023/09/06 00:01:15;;;;;;;12.35;4.22;;;;;;;14.95;63.20;100136.34;4913650;29;20063;-78
2023/09/06 00:03:41;;;;;;;8.65;4.13;;;;;;;14.75;63.20;100102.75;4930289;29;20068;-77
2023/09/06 00:06:08;;;;;;;9.82;4.07;;;;;;;14.71;63.12;100088.00;4952528;28;20118;-80
2023/09/06 00:08:35;;;;;;;10.15;4.32;;;;;;;14.95;63.01;100133.75;4948413;29;20052;-78
2023/09/06 00:11:05;;;;;;;11.35;4.90;;;;;;;14.34;63.05;100020.66;4920574;29;20047;-81
2023/09/06 00:13:32;;;;;;;8.20;3.92;;;;;;;14.92;62.85;100115.47;4933176;29;20047;-80
2023/09/06 00:16:03;;;;;;;9.35;4.57;;;;;;;14.68;63.19;100080.16;4952017;28;20470;-80
2023/09/06 00:18:29;;;;;;;8.82;4.38;;;;;;;14.86;63.00;100113.00;4932925;29;20075;-79
2023/09/06 00:20:57;;;;;;;7.43;4.20;;;;;;;14.89;62.94;100105.06;4929497;29;20099;-77
2023/09/06 00:23:25;;;;;;;7.35;4.60;;;;;;;14.87;63.23;100118.19;4914787;29;20047;-78
2023/09/06 00:25:52;;;;;;;5.38;3.75;;;;;;;14.81;63.17;100099.97;4932038;29;20047;-79
2023/09/06 00:28:23;;;;;;;9.75;4.43;;;;;;;14.82;63.17;100101.69;4927992;29;20040;-77
2023/09/06 00:30:57;;;;;;;7.90;3.70;;;;;;;14.68;63.28;100085.41;4919177;29;20043;-80
2023/09/06 00:33:26;;;;;;;10.25;4.60;;;;;;;14.79;63.32;100108.78;4912811;29;20532;-76
2023/09/06 00:35:54;;;;;;;10.07;4.53;;;;;;;14.80;63.38;100113.97;4928670;29;20075;-74
2023/09/06 00:38:20;;;;;;;9.77;4.35;;;;;;;14.78;63.61;100109.66;4920147;29;20126;-77
2023/09/06 00:40:51;;;;;;;7.55;4.35;;;;;;;14.73;63.48;100100.16;4951636;28;20054;-79
2023/09/06 00:43:17;;;;;;;7.93;3.90;;;;;;;14.69;63.55;100082.75;4913766;29;20048;-79
2023/09/06 00:45:46;;;;;;;8.55;4.15;;;;;;;14.72;63.68;100094.94;4919854;29;20566;-77
2023/09/06 00:48:14;;;;;;;8.35;3.75;;;;;;;14.71;63.68;100096.69;4948646;28;20125;-78
2023/09/06 00:50:43;;;;;;;11.13;4.30;;;;;;;14.57;63.97;100081.22;4948116;28;20043;-79
2023/09/06 00:53:10;;;;;;;9.75;4.45;;;;;;;14.58;63.98;100082.97;4913845;29;20044;-80
2023/09/06 00:55:37;;;;;;;10.65;4.00;;;;;;;14.62;63.88;100099.50;4930534;29;20044;-79
2023/09/06 00:58:05;;;;;;;5.68;3.80;;;;;;;14.42;63.96;100076.31;4933769;29;20048;-80
2023/09/06 01:00:32;;;;;;;10.07;3.88;;;;;;;14.35;64.16;100080.81;4915620;29;20055;-85
2023/09/06 01:02:59;;;;;;;7.93;4.30;;;;;;;14.18;64.48;100061.97;4934832;29;20055;-83
2023/09/06 01:05:30;;;;;;;7.32;4.10;;;;;;;14.11;64.27;100059.47;4919305;29;20070;-83
2023/09/06 01:08:00;;;;;;;;;;;;;;;14.24;64.56;100093.25;4920357;29;20065;-83
2023/09/06 01:10:26;;;;;;;9.05;4.00;;;;;;;14.05;64.36;100070.06;4938820;29;19970;-83
2023/09/06 01:12:55;;;;;;;8.43;4.15;;;;;;;13.74;64.62;100040.97;4950781;28;20047;-79
2023/09/06 01:15:22;;;;;;;8.98;4.07;;;;;;;13.96;65.11;100078.09;4928080;29;20469;-78
2023/09/06 01:17:51;;;;;;;9.93;4.68;;;;;;;13.54;65.09;100019.56;4951079;28;20075;-77
2023/09/06 01:20:38;;;;;;;8.70;4.10;;;;;;;13.89;65.44;100081.69;4930417;29;20130;-79
2023/09/06 01:23:15;;;;;;;9.98;4.20;;;;;;;13.66;65.48;100055.09;4930142;29;20035;-79
2023/09/06 01:25:42;;;;;;;8.98;4.90;;;;;;;13.76;65.60;100071.47;4949762;28;20494;-78
2023/09/06 01:28:09;;;;;;;8.35;4.38;;;;;;;13.64;65.56;100056.84;4928856;29;20043;-76
2023/09/06 01:30:41;;;;;;;9.95;4.15;;;;;;;13.36;65.86;100019.81;4929592;29;20048;-80
2023/09/06 01:33:07;;;;;;;13.90;4.25;;;;;;;13.61;66.09;100062.13;4928751;29;20059;-77
2023/09/06 01:35:34;;;;;;;9.27;4.60;;;;;;;13.48;66.24;100043.19;4950551;28;20047;-78
2023/09/06 01:38:00;;;;;;;8.32;4.43;;;;;;;13.11;66.43;99988.88;4897067;29;20210;-81
2023/09/06 01:40:28;;;;;;;10.63;4.20;;;;;;;13.35;66.23;100025.97;4936766;28;20157;-77
2023/09/06 01:42:54;;;;;;;6.70;4.05;;;;;;;13.43;66.50;100045.00;4901918;29;20040;-77
2023/09/06 01:45:21;;;;;;;8.05;4.10;;;;;;;12.88;66.75;99971.84;4933333;29;20158;-80
2023/09/06 01:47:48;;;;;;;7.78;4.82;;;;;;;13.04;66.56;99993.31;4948927;29;20052;-78
2023/09/06 01:50:21;;;;;;;7.47;4.25;;;;;;;13.13;67.06;100012.38;4932026;29;20103;-79
2023/09/06 01:52:47;;;;;;;10.07;4.90;;;;;;;13.25;67.27;100046.13;4948433;29;20095;-78
2023/09/06 01:55:13;;;;;;;11.90;4.43;;;;;;;13.04;67.35;100016.84;4935253;29;20050;-79
2023/09/06 01:57:42;;;;;;;10.60;4.82;;;;;;;13.14;67.58;100029.78;4917581;29;20102;-79
2023/09/06 02:00:27;;;;;;;9.93;4.82;;;;;;;12.63;67.89;99960.88;4893869;29;1304843;-80
2023/09/06 02:02:55;;;;;;;9.68;4.68;;;;;;;13.01;67.51;100021.25;4953885;28;20035;-79
2023/09/06 02:05:20;;;;;;;10.48;4.47;;;;;;;13.04;67.53;100039.50;4939152;29;20054;-80
2023/09/06 02:07:47;;;;;;;9.05;4.70;;;;;;;13.00;68.06;100033.47;4940941;29;20039;-84
2023/09/06 02:10:14;;;;;;;7.28;4.32;;;;;;;12.82;68.18;100008.47;4953781;28;20043;-79
2023/09/06 02:12:40;;;;;;;7.55;4.63;;;;;;;12.84;68.25;100017.16;4915883;29;20040;-82
2023/09/06 02:15:14;;;;;;;14.18;5.80;;;;;;;12.68;68.43;99984.34;4932440;29;20042;-83
2023/09/06 02:17:42;;;;;;;8.40;4.38;;;;;;;12.89;68.48;100027.53;4932478;29;20043;-83
2023/09/06 02:20:16;;;;;;;7.20;4.53;;;;;;;12.53;68.52;99972.34;4920684;29;20534;-81
2023/09/06 02:22:44;;;;;;;9.40;4.57;;;;;;;12.84;68.71;100019.78;4955916;28;20183;-81
2023/09/06 02:25:10;;;;;;;10.32;4.30;;;;;;;12.54;68.50;99969.72;4952431;29;20099;-84
2023/09/06 02:27:37;;;;;;;8.40;4.68;;;;;;;12.46;68.90;99961.16;4959142;28;20043;-82
2023/09/06 02:30:07;;;;;;;9.30;4.32;;;;;;;12.79;69.06;100018.97;4936154;29;20883;-83
2023/09/06 02:32:34;;;;;;;7.80;4.50;;;;;;;12.76;69.13;100008.56;4933626;29;20048;-80
2023/09/06 02:35:01;;;;;;;8.70;4.18;;;;;;;12.68;69.29;99995.63;4935177;29;20047;-81
2023/09/06 02:37:27;;;;;;;11.10;4.30;;;;;;;12.65;69.21;99996.53;4934123;29;20052;-82
2023/09/06 02:39:53;;;;;;;7.95;4.45;;;;;;;12.69;69.12;99991.28;4937458;29;20454;-81
2023/09/06 02:42:20;;;;;;;7.13;4.40;;;;;;;12.52;69.19;99975.84;4918179;29;20568;-79
2023/09/06 02:44:46;;;;;;;7.90;5.00;;;;;;;12.45;69.36;99960.28;4919055;29;20043;-80
2023/09/06 02:47:25;;;;;;;8.88;4.70;;;;;;;12.70;69.50;100009.53;4918283;29;20044;-80
2023/09/06 02:49:55;;;;;;;10.00;4.20;;;;;;;12.43;69.82;99955.97;4934083;29;20063;-81
2023/09/06 02:52:30;;;;;;;14.73;4.70;;;;;;;12.53;69.66;99952.31;4940746;29;20043;-82
2023/09/06 02:54:57;;;;;;;7.90;4.47;;;;;;;12.39;70.03;99912.53;4957202;28;20402;-78
2023/09/06 02:57:30;;;;;;;6.68;4.22;;;;;;;12.63;70.12;99919.13;4921418;29;20039;-78
2023/09/06 02:59:56;;;;;;;7.75;4.32;;;;;;;13.11;69.70;99986.28;4937362;29;20071;-79
2023/09/06 03:02:22;;;;;;;7.30;4.10;;;;;;;13.24;69.82;99994.78;4932859;29;20050;-82
2023/09/06 03:04:57;;;;;;;5.95;4.10;;;;;;;13.31;69.81;99996.38;4902666;29;20051;-81
2023/09/06 03:07:24;;;;;;;7.10;4.15;;;;;;;13.39;69.87;100004.09;4952301;28;20138;-78
2023/09/06 03:09:51;;;;;;;7.65;3.97;;;;;;;13.45;69.70;99997.94;4915406;29;20043;-77
2023/09/06 03:12:17;;;;;;;8.20;4.07;;;;;;;13.27;69.48;99958.13;4951027;28;20461;-78
2023/09/06 03:14:48;;;;;;;8.32;4.45;;;;;;;13.51;69.50;99977.78;4915914;29;20098;-77
2023/09/06 03:17:18;;;;;;;7.03;4.30;;;;;;;13.63;69.75;99976.69;4900576;29;20039;-79
2023/09/06 03:19:48;;;;;;;11.00;3.83;;;;;;;13.74;69.53;99986.94;4953698;28;20047;-80
2023/09/06 03:22:15;;;;;;;10.02;4.00;;;;;;;13.65;69.19;99960.97;4917551;29;20050;-80
2023/09/06 03:24:41;;;;;;;9.35;3.97;;;;;;;13.79;69.41;99972.00;4937922;29;20044;-79
2023/09/06 03:27:08;;;;;;;7.10;3.60;;;;;;;13.83;69.37;99960.59;4918626;29;20050;-81
2023/09/06 03:29:38;;;;;;;7.68;3.70;;;;;;;13.80;69.03;99942.34;4932050;29;20119;-80
2023/09/06 03:32:15;;;;;;;8.63;4.00;;;;;;;13.96;68.73;99958.59;4948944;29;20043;-79
2023/09/06 03:34:41;;;;;;;8.57;3.47;;;;;;;14.02;68.80;99957.59;4932116;29;20044;-82
2023/09/06 03:37:09;;;;;;;6.22;3.70;;;;;;;14.06;68.73;99951.41;4960932;28;20510;-81
2023/09/06 03:39:40;;;;;;;5.95;4.07;;;;;;;13.99;68.56;99927.16;4931100;29;20043;-81
2023/09/06 03:42:10;;;;;;;7.07;3.75;;;;;;;14.14;68.54;99939.06;4932869;29;20419;-79
2023/09/06 03:44:37;;;;;;;10.10;3.80;;;;;;;14.29;68.19;99948.34;4921326;29;20068;-80
2023/09/06 03:47:13;;;;;;;7.22;3.90;;;;;;;14.38;68.26;99942.03;4921837;29;20063;-81
2023/09/06 03:49:40;;;;;;;6.75;3.67;;;;;;;14.42;67.89;99938.44;4936574;29;20112;-81
2023/09/06 03:52:07;;;;;;;6.57;3.53;;;;;;;14.29;67.62;99914.31;4916800;29;20569;-78
2023/09/06 03:54:36;;;;;;;7.20;4.10;;;;;;;14.43;67.70;99926.22;4933151;29;20502;-78
2023/09/06 03:57:12;;;;;;;12.70;3.60;;;;;;;14.50;67.14;99929.53;4951221;28;20455;-77
2023/09/06 03:59:40;;;;;;;9.23;4.00;;;;;;;14.65;67.10;99930.94;4913551;29;20040;-78
2023/09/06 04:02:08;;;;;;;6.95;4.40;;;;;;;14.78;67.01;99927.19;4953224;28;20114;-75
2023/09/06 04:04:34;;;;;;;8.73;3.83;;;;;;;14.80;66.75;99919.28;4896014;29;20052;-76
2023/09/06 04:07:07;;;;;;;8.00;4.28;;;;;;;14.85;66.55;99904.31;4919803;29;20494;-76
2023/09/06 04:09:37;;;;;;;8.05;4.07;;;;;;;15.03;66.09;99918.69;4930233;29;20076;-77
2023/09/06 04:12:07;;;;;;;7.85;3.83;;;;;;;15.11;65.92;99910.66;4917707;29;20051;-77
2023/09/06 04:14:38;;;;;;;8.93;3.97;;;;;;;15.28;65.71;99903.22;4951375;28;20040;-81
2023/09/06 04:17:07;;;;;;;6.18;4.00;;;;;;;15.42;65.52;99891.47;4935796;29;20155;-78
2023/09/06 04:19:35;;;;;;;7.50;4.20;;;;;;;15.44;65.30;99858.22;4951677;28;20534;-80
2023/09/06 04:22:01;;;;;;;9.27;3.65;;;;;;;15.92;64.79;99885.72;4922679;29;20044;-86
2023/09/06 04:24:35;;;;;;;5.32;3.45;;;;;;;16.13;64.37;99894.72;4902608;29;20524;-82
2023/09/06 04:27:03;;;;;;;8.88;3.95;;;;;;;16.21;63.88;99887.50;4920101;29;20047;-79
2023/09/06 04:29:29;;;;;;;7.82;3.85;;;;;;;16.08;63.27;99852.00;4897049;29;20073;-77
2023/09/06 04:31:55;;;;;;;6.80;3.67;;;;;;;16.28;63.28;99880.28;4938936;29;20047;-80
2023/09/06 04:34:22;;;;;;;8.05;3.90;;;;;;;16.33;62.95;99865.22;4905081;29;20090;-81
2023/09/06 04:36:48;;;;;;;11.27;4.13;;;;;;;16.41;62.74;99870.25;4936661;29;20043;-81
2023/09/06 04:39:20;;;;;;;6.82;3.85;;;;;;;16.29;62.14;99842.63;4946446;29;20129;-79
2023/09/06 04:41:46;;;;;;;;;;;;;;;16.54;62.07;99870.72;4951870;29;20135;-83
2023/09/06 04:44:12;;;;;;;4.88;3.40;;;;;;;16.28;61.69;99833.00;4953150;28;20037;-83
2023/09/06 04:46:38;;;;;;;7.43;3.63;;;;;;;16.56;61.96;99876.75;4946384;28;20054;-81
2023/09/06 04:49:04;;;;;;;5.63;3.90;;;;;;;16.48;61.51;99853.34;4932564;29;20036;-85
2023/09/06 04:51:30;;;;;;;6.90;3.75;;;;;;;16.67;61.31;99868.50;4951966;28;20043;-81
2023/09/06 04:54:00;;;;;;;6.45;3.40;;;;;;;16.82;61.39;99877.66;4916167;29;20040;-81
2023/09/06 04:56:31;;;;;;;;;;;;;;;17.01;60.88;99878.78;4902450;29;20052;-83
2023/09/06 04:58:58;;;;;;;6.57;3.42;;;;;;;17.20;60.76;99851.00;4929412;29;19919;-80
2023/09/06 05:01:24;;;;;;;9.73;4.18;;;;;;;17.43;60.31;99861.56;4930967;29;20048;-77
2023/09/06 05:03:50;;;;;;;6.55;3.78;;;;;;;17.61;59.76;99870.56;4946331;29;20040;-79
2023/09/06 05:06:17;;;;;;;8.30;3.80;;;;;;;17.69;59.51;99865.00;4919653;29;20107;-78
2023/09/06 05:08:44;;;;;;;6.50;3.97;;;;;;;17.49;59.34;99799.13;4916374;29;20059;-81
2023/09/06 05:11:15;;;;;;;7.47;3.95;;;;;;;18.05;58.60;99842.63;4952147;28;20509;-78
2023/09/06 05:13:42;;;;;;;7.97;3.60;;;;;;;18.21;58.21;99862.16;4930541;29;20933;-77
2023/09/06 05:16:08;;;;;;;8.10;3.72;;;;;;;17.86;58.06;99816.13;4929798;29;20039;-77
2023/09/06 05:18:37;;;;;;;8.55;3.50;;;;;;;17.74;57.70;99802.53;4945816;29;20450;-80
2023/09/06 05:21:05;;;;;;;6.65;3.60;;;;;;;18.04;57.65;99852.28;4927558;29;20039;-79
2023/09/06 05:23:44;;;;;;;8.57;3.55;;;;;;;18.02;57.42;99819.91;4931297;29;20582;-79
2023/09/06 05:26:11;;;;;;;8.18;4.05;;;;;;;18.52;57.17;99844.25;4929920;29;20047;-78
2023/09/06 05:28:42;;;;;;;9.65;3.00;;;;;;;18.69;56.83;99840.06;4929622;29;20103;-80
2023/09/06 05:31:09;;;;;;;8.40;3.60;;;;;;;19.54;56.10;99852.25;4950397;29;20067;-84
2023/09/06 05:33:40;;;;;;;6.68;3.17;;;;;;;19.69;55.05;99848.06;4932958;29;20053;-85
2023/09/06 05:36:10;;;;;;;10.68;4.18;;;;;;;19.63;54.72;99841.28;4940834;29;20111;-85
2023/09/06 05:38:36;;;;;;;5.70;3.20;;;;;;;19.57;54.57;99812.53;4950496;29;20044;-85
2023/09/06 05:41:06;;;;;;;7.95;3.47;;;;;;;19.78;54.30;99844.97;4940860;29;20059;-86
2023/09/06 05:43:36;;;;;;;5.40;3.75;;;;;;;19.91;53.88;99842.66;4933143;29;20051;-81
2023/09/06 05:46:05;;;;;;;7.90;4.07;;;;;;;20.76;53.68;99812.13;4916520;29;20055;-83
2023/09/06 05:48:34;;;;;;;7.05;3.50;;;;;;;22.58;52.11;99815.56;4904302;29;20154;-80
2023/09/06 05:51:00;;;;;;;7.53;3.35;;;;;;;24.00;49.16;99816.66;4932617;29;20152;-80
2023/09/06 05:53:29;;;;;;;4.80;3.20;;;;;;;25.28;46.81;99822.34;4899611;29;20059;-81
2023/09/06 05:55:57;;;;;;;4.78;3.10;;;;;;;25.49;44.32;99803.19;4937111;29;20119;-83
2023/09/06 05:58:26;;;;;;;6.95;3.30;;;;;;;26.60;43.17;99812.84;4954880;28;20124;-83
2023/09/06 06:00:59;;;;;;;8.65;3.22;;;;;;;27.02;41.28;99769.66;4949045;29;20514;-83
2023/09/06 06:03:25;;;;;;;6.43;3.22;;;;;;;28.05;39.89;99784.59;4951092;28;20044;-82
2023/09/06 06:05:51;;;;;;;4.57;3.10;;;;;;;29.30;37.88;99794.63;4931890;29;20055;-79
2023/09/06 06:08:24;;;;;;;6.40;3.28;;;;;;;30.25;35.91;99753.19;4951293;28;20996;-81
2023/09/06 06:10:55;;;;;;;9.52;3.00;;;;;;;30.86;33.94;99772.63;4933656;29;20090;-84
2023/09/06 06:13:21;;;;;;;7.70;3.17;;;;;;;31.76;33.07;99770.25;4932981;29;20044;-84
2023/09/06 06:15:48;;;;;;;9.00;3.30;;;;;;;32.66;32.00;99772.06;4949421;28;20162;-81
2023/09/06 06:18:15;;;;;;;6.65;2.92;;;;;;;33.52;30.38;99765.97;4918448;29;20071;-80
2023/09/06 06:20:41;;;;;;;5.45;3.38;;;;;;;34.04;28.98;99751.41;4946597;29;20061;-79
2023/09/06 06:23:07;;;;;;;6.28;3.05;;;;;;;34.31;28.60;99754.78;4930359;29;20058;-80
2023/09/06 06:25:34;;;;;;;10.00;3.75;;;;;;;34.49;27.17;99724.91;4932036;29;20047;-79
2023/09/06 06:28:03;;;;;;;7.03;2.90;;;;;;;34.89;26.80;99735.78;4937848;29;20529;-81
2023/09/06 06:30:29;;;;;;;11.85;3.80;;;;;;;35.21;26.67;99724.03;4940210;29;20112;-85
2023/09/06 06:32:55;;;;;;;5.60;3.40;;;;;;;35.86;25.32;99750.91;4941275;29;20451;-84
2023/09/06 06:35:21;;;;;;;5.13;3.30;;;;;;;36.20;24.88;99730.69;4930453;29;20044;-82
2023/09/06 06:37:50;;;;;;;8.85;3.33;;;;;;;36.51;24.94;99732.47;4920788;29;20047;-81
2023/09/06 06:40:16;;;;;;;7.28;3.13;;;;;;;37.08;24.82;99755.38;4959023;28;20044;-86
2023/09/06 06:42:55;;;;;;;8.65;3.40;;;;;;;37.46;23.48;99769.84;4938923;29;20043;-85
2023/09/06 06:45:26;;;;;;;7.55;3.22;;;;;;;37.96;23.08;99761.84;4953778;29;20047;-86
2023/09/06 06:47:58;;;;;;;6.18;3.30;;;;;;;38.13;22.47;99738.81;4933375;29;20032;-85
2023/09/06 06:50:27;;;;;;;8.95;3.30;;;;;;;38.49;21.82;99711.75;4920463;29;20063;-83
2023/09/06 06:53:04;;;;;;;6.25;3.58;;;;;;;38.83;21.47;99721.78;4933108;29;20043;-81
2023/09/06 06:55:33;;;;;;;5.82;3.05;;;;;;;38.83;21.72;99696.47;4935381;29;20044;-82
2023/09/06 06:58:02;;;;;;;6.00;3.22;;;;;;;39.22;21.21;99700.41;4941248;29;20050;-79
2023/09/06 07:00:31;;;;;;;9.90;3.70;;;;;;;39.43;21.08;99702.19;4932665;29;20063;-80
2023/09/06 07:03:00;;;;;;;7.20;2.90;;;;;;;39.73;20.54;99728.19;4935073;29;20047;-84
2023/09/06 07:05:27;;;;;;;8.13;3.22;;;;;;;39.73;20.42;99728.19;4937119;29;20047;-82
2023/09/06 07:07:54;;;;;;;7.55;2.88;;;;;;;39.92;20.05;99719.22;4920490;29;20050;-87
2023/09/06 07:10:21;;;;;;;7.35;2.88;;;;;;;40.35;19.68;99742.50;4965053;28;20035;-80
2023/09/06 07:12:48;;;;;;;5.30;2.83;;;;;;;40.81;19.72;99735.31;4934422;29;20077;-86
2023/09/06 07:15:14;;;;;;;4.55;3.10;;;;;;;41.22;18.91;99737.91;4937930;29;20040;-80
2023/09/06 07:17:41;;;;;;;5.80;3.08;;;;;;;41.61;18.37;99697.00;4936686;29;20107;-86
2023/09/06 07:20:08;;;;;;;6.13;3.03;;;;;;;42.21;17.90;99729.31;4937336;29;20043;-75
2023/09/06 07:22:34;;;;;;;9.25;3.75;;;;;;;42.33;17.56;99715.75;4954273;28;20043;-80
2023/09/06 07:25:00;;;;;;;7.85;3.40;;;;;;;42.98;17.40;99721.81;4930910;29;20036;-76
2023/09/06 07:27:26;;;;;;;4.57;3.08;;;;;;;42.72;17.13;99721.03;4934578;29;20039;-81
2023/09/06 07:29:52;;;;;;;9.38;3.17;;;;;;;43.23;16.97;99724.47;4952760;28;20048;-77
2023/09/06 07:32:18;;;;;;;7.88;3.40;;;;;;;43.30;16.50;99727.13;4952890;28;20193;-75
2023/09/06 07:34:44;;;;;;;5.80;3.03;;;;;;;42.17;16.99;99703.50;4929023;29;20040;-73
2023/09/06 07:37:10;;;;;;;6.70;3.67;;;;;;;42.21;17.41;99726.59;4946639;29;20039;-74
2023/09/06 07:39:37;;;;;;;9.63;2.95;;;;;;;42.64;17.16;99713.16;4912330;29;20442;-73
2023/09/06 07:42:06;;;;;;;9.88;3.58;;;;;;;42.92;16.56;99714.53;4913378;29;20048;-82
2023/09/06 07:44:32;;;;;;;7.10;2.92;;;;;;;42.84;17.08;99715.66;4947013;29;20196;-75
2023/09/06 07:46:59;;;;;;;5.45;3.30;;;;;;;42.38;17.09;99688.59;4932538;29;20046;-76
2023/09/06 07:49:28;;;;;;;7.85;3.13;;;;;;;42.41;17.20;99718.22;4930685;29;21042;-76
2023/09/06 07:51:54;;;;;;;6.30;3.25;;;;;;;42.45;17.29;99715.88;4926830;29;20043;-73
2023/09/06 07:54:20;;;;;;;6.97;3.13;;;;;;;41.66;18.58;99692.53;4915839;29;20043;-73
2023/09/06 07:56:55;;;;;;;11.13;3.28;;;;;;;40.65;17.51;99686.72;4930515;29;20131;-74
2023/09/06 07:59:22;;;;;;;7.72;3.58;;;;;;;39.01;19.35;99679.63;4949162;28;20135;-78
2023/09/06 08:01:48;;;;;;;6.25;3.15;;;;;;;38.03;20.02;99684.03;4929297;29;20479;-80
2023/09/06 08:04:14;;;;;;;8.48;3.20;;;;;;;36.00;21.91;99693.31;4911043;29;20051;-79
2023/09/06 08:06:42;;;;;;;7.93;3.38;;;;;;;34.65;23.46;99707.84;4944466;29;20048;-79
2023/09/06 08:09:10;;;;;;;6.65;3.15;;;;;;;33.42;24.52;99704.94;4930251;29;20073;-75
2023/09/06 08:11:36;;;;;;;4.28;3.10;;;;;;;32.45;25.67;99713.16;4935485;29;20051;-73
2023/09/06 08:14:02;;;;;;;7.25;3.40;;;;;;;31.51;26.91;99677.72;4945296;28;20031;-81
2023/09/06 08:16:28;;;;;;;7.65;3.42;;;;;;;31.15;27.70;99693.78;4949109;28;20086;-79
2023/09/06 08:18:55;;;;;;;10.23;3.67;;;;;;;30.24;29.13;99653.09;4933388;29;20138;-82
2023/09/06 08:21:21;;;;;;;8.23;3.30;;;;;;;30.22;29.31;99708.72;4932921;29;20476;-78
2023/09/06 08:23:47;;;;;;;6.85;3.38;;;;;;;29.69;30.32;99709.97;4931148;29;20406;-77
2023/09/06 08:26:13;;;;;;;8.15;3.42;;;;;;;29.86;30.75;99692.34;4950280;28;20521;-76
2023/09/06 08:28:40;;;;;;;11.95;3.28;;;;;;;29.66;31.24;99708.44;4930810;29;20054;-80
2023/09/06 08:31:06;;;;;;;13.00;3.65;;;;;;;29.22;31.44;99665.88;4931656;29;20103;-79
2023/09/06 08:33:33;;;;;;;8.82;3.30;;;;;;;28.38;31.63;99624.09;4916410;29;20040;-80
2023/09/06 08:35:59;;;;;;;6.60;3.45;;;;;;;28.26;32.65;99709.78;4934661;29;20050;-81
2023/09/06 08:38:25;;;;;;;9.38;3.50;;;;;;;27.62;33.67;99686.56;4916994;29;20058;-81
2023/09/06 08:40:50;;;;;;;7.68;3.50;;;;;;;27.40;34.01;99695.47;4951277;28;20043;-77
2023/09/06 08:43:19;;;;;;;6.43;3.40;;;;;;;27.25;34.82;99698.44;4953053;28;20141;-79
2023/09/06 08:45:48;;;;;;;9.40;3.42;;;;;;;27.02;35.11;99694.91;4951334;28;20047;-73
2023/09/06 08:48:15;;;;;;;10.68;3.42;;;;;;;26.99;35.87;99714.72;4914311;29;20086;-75
2023/09/06 08:50:44;;;;;;;9.70;3.47;;;;;;;28.40;35.74;99683.66;4945631;28;20044;-78
2023/09/06 08:53:11;;;;;;;12.55;3.78;;;;;;;31.33;32.66;99699.19;4947089;29;20505;-80
2023/09/06 08:55:37;;;;;;;10.30;3.10;;;;;;;33.53;29.83;99674.09;4930015;29;20043;-77
2023/09/06 08:58:03;;;;;;;10.32;2.95;;;;;;;34.83;27.08;99613.88;4919524;29;20039;-76
2023/09/06 09:00:30;;;;;;;12.98;3.00;;;;;;;35.28;26.22;99672.78;4912388;29;20505;-75
2023/09/06 09:02:58;;;;;;;11.75;3.10;;;;;;;35.88;25.44;99678.47;4947676;29;20046;-76
2023/09/06 09:05:25;;;;;;;27.10;4.38;;;;;;;36.98;24.26;99646.41;4911941;29;20186;-79
2023/09/06 09:08:08;;;;;;;16.23;3.15;;;;;;;38.10;22.46;99616.19;4915298;29;20501;-80
2023/09/06 09:10:42;;;;;;;5.20;2.70;;;;;;;39.24;21.82;99694.78;4916410;29;20032;-75
2023/09/06 09:13:15;;;;;;;11.93;2.80;;;;;;;38.32;20.74;99656.84;4913187;29;20043;-77
2023/09/06 09:15:42;;;;;;;8.95;2.70;;;;;;;37.70;21.59;99627.53;4949027;28;20040;-76
2023/09/06 09:18:13;;;;;;;10.57;2.50;;;;;;;37.89;21.78;99693.03;4929798;29;21460;-77
2023/09/06 09:20:43;;;;;;;12.32;2.58;;;;;;;38.95;20.49;99678.53;4912185;29;20039;-77
2023/09/06 09:23:16;;;;;;;13.52;2.90;;;;;;;39.24;20.00;99664.84;4928310;29;20419;-77
2023/09/06 09:25:51;;;;;;;14.00;2.90;;;;;;;38.20;19.89;99678.28;4930094;29;20044;-82
2023/09/06 09:28:17;;;;;;;19.38;3.17;;;;;;;36.85;20.28;99700.44;4945212;29;20075;-81
2023/09/06 09:30:46;;;;;;;16.50;3.30;;;;;;;36.38;21.11;99705.13;4932792;29;20126;-81
2023/09/06 09:33:12;;;;;;;13.93;2.58;;;;;;;36.54;21.11;99661.66;4934178;29;20043;-81
2023/09/06 09:35:40;;;;;;;11.13;2.45;;;;;;;36.72;20.58;99679.41;4947337;29;20057;-80
2023/09/06 09:38:11;;;;;;;6.72;2.70;;;;;;;35.47;21.46;99703.13;4926766;29;20046;-82
2023/09/06 09:40:37;;;;;;;11.20;2.58;;;;;;;34.21;22.58;99723.41;4915580;29;20051;-80
2023/09/06 09:43:07;;;;;;;6.45;2.47;;;;;;;33.04;23.09;99702.56;4927172;29;20070;-80
2023/09/06 09:45:48;;;;;;;10.03;2.80;;;;;;;31.68;24.69;99727.97;4939456;29;20062;-82
2023/09/06 09:48:15;;;;;;;5.32;2.55;;;;;;;30.44;26.52;99712.94;4930453;29;20068;-81
2023/09/06 09:50:42;;;;;;;9.70;2.65;;;;;;;29.51;27.80;99712.47;4951909;28;20458;-86
2023/09/06 09:53:09;;;;;;;10.27;2.33;;;;;;;28.21;28.75;99641.63;4911437;29;20035;-85
2023/09/06 09:55:55;;;;;;;9.82;2.58;;;;;;;27.63;30.07;99664.22;4949418;29;20447;-82
2023/09/06 09:58:26;;;;;;;10.25;2.47;;;;;;;26.87;30.61;99646.28;4950295;28;20043;-84
2023/09/06 10:00:54;;;;;;;4.53;2.17;;;;;;;26.77;31.33;99753.72;4941650;29;20226;-88
2023/09/06 10:03:27;;;;;;;5.47;2.08;;;;;;;26.38;32.84;99749.63;4967029;28;20051;-85
2023/09/06 10:05:54;;;;;;;5.55;1.98;;;;;;;25.96;32.91;99720.72;4958641;28;20446;-82
2023/09/06 10:08:21;;;;;;;5.15;2.30;;;;;;;25.89;33.53;99754.16;4947786;29;20044;-88
2023/09/06 10:10:49;;;;;;;4.72;2.08;;;;;;;25.71;34.51;99771.38;4924528;29;20040;-86
2023/09/06 10:13:15;;;;;;;6.10;2.40;;;;;;;25.44;34.52;99752.91;4956365;29;20062;-80
2023/09/06 10:15:43;;;;;;;4.80;2.47;;;;;;;25.39;35.26;99766.50;4949679;29;20180;-86
2023/09/06 10:18:11;;;;;;;5.88;2.33;;;;;;;25.31;35.75;99776.00;4948489;29;20035;-86
2023/09/06 10:20:40;;;;;;;3.78;2.10;;;;;;;25.26;36.29;99753.25;4945637;29;20084;-87
2023/09/06 10:23:07;;;;;;;4.43;2.10;;;;;;;26.59;35.08;99745.31;4929580;29;20044;-85
2023/09/06 10:25:41;;;;;;;4.13;1.95;;;;;;;27.90;33.82;99690.50;4930522;29;20056;-87
2023/09/06 10:28:23;;;;;;;3.08;2.17;;;;;;;28.95;31.72;99750.34;4935487;29;20068;-86
2023/09/06 10:30:57;;;;;;;3.25;2.17;;;;;;;28.69;31.14;99704.41;4940401;29;20039;-87
2023/09/06 10:33:32;;;;;;;5.45;2.15;;;;;;;28.58;30.83;99745.47;4936715;29;20036;-84
2023/09/06 10:36:02;;;;;;;3.83;2.00;;;;;;;28.14;31.66;99748.25;4951867;28;20055;-86
2023/09/06 10:38:30;;;;;;;3.67;2.00;;;;;;;27.66;31.91;99750.34;4944973;29;20035;-88
2023/09/06 10:40:59;;;;;;;4.75;1.92;;;;;;;27.37;32.27;99747.31;4925718;29;20044;-87
2023/09/06 10:43:31;;;;;;;4.68;2.30;;;;;;;26.27;32.89;99649.13;4948125;29;20118;-87
2023/09/06 10:46:18;;;;;;;4.70;2.28;;;;;;;26.42;33.66;99722.59;4941018;29;20043;-87
2023/09/06 10:49:19;;;;;;;10.10;2.22;;;;;;;25.90;34.37;99766.50;4931897;29;20048;-89
2023/09/06 10:52:12;;;;;;;4.85;1.98;;;;;;;24.90;35.90;99738.91;4946477;29;20050;-88
2023/09/06 10:54:43;;;;;;;4.93;2.20;;;;;;;24.25;36.58;99700.75;4926945;29;20047;-83
2023/09/06 10:57:15;;;;;;;7.32;2.33;;;;;;;24.00;37.59;99701.56;4940867;29;20039;-85
2023/09/06 10:59:57;;;;;;;4.28;2.15;;;;;;;24.04;38.02;99724.31;4941365;29;20605;-86
2023/09/06 11:02:26;;;;;;;7.10;2.45;;;;;;;24.25;37.80;99748.59;4937881;29;20051;-81
2023/09/06 11:05:07;;;;;;;8.70;2.25;;;;;;;24.36;37.86;99726.59;4951863;29;20040;-84
2023/09/06 11:07:56;;;;;;;3.78;1.77;;;;;;;24.53;37.16;99728.13;4900329;29;20601;-83
2023/09/06 11:10:23;;;;;;;3.47;1.70;;;;;;;24.15;37.22;99659.81;4930671;29;20048;-85
2023/09/06 11:12:51;;;;;;;3.38;2.00;;;;;;;24.17;36.93;99664.06;4925574;29;20615;-82
2023/09/06 11:15:17;;;;;;;5.38;2.22;;;;;;;24.79;36.54;99770.72;4938872;29;20431;-81
2023/09/06 11:17:44;;;;;;;4.85;1.92;;;;;;;24.50;36.54;99710.56;4952331;29;20058;-83
2023/09/06 11:20:12;;;;;;;5.47;2.00;;;;;;;24.92;36.62;99779.56;4951067;29;20043;-81
2023/09/06 11:22:48;;;;;;;10.40;2.50;;;;;;;24.30;36.29;99649.91;4918926;29;20087;-83
2023/09/06 11:25:22;;;;;;;5.30;2.42;;;;;;;25.02;36.44;99753.16;4941684;29;20406;-83
2023/09/06 11:28:00;;;;;;;6.90;2.40;;;;;;;24.44;36.41;99665.78;4938463;29;20047;-82
2023/09/06 11:30:31;;;;;;;3.35;2.03;;;;;;;24.09;36.17;99644.28;4919393;29;20250;-82
2023/09/06 11:32:58;;;;;;;3.45;2.00;;;;;;;24.00;36.18;99659.88;4919438;29;20106;-84
2023/09/06 11:35:45;;;;;;;6.00;2.13;;;;;;;24.27;36.33;99705.97;4954575;29;20046;-86
2023/09/06 11:38:16;;;;;;;6.70;2.45;;;;;;;24.65;36.20;99761.00;4934415;29;20047;-76
2023/09/06 11:40:47;;;;;;;4.63;2.30;;;;;;;24.73;36.18;99765.81;4913218;29;20195;-82